Time;durP1;ratioP1;P1;durP2;ratioP2;P2;SDS_P1;SDS_P2;PMS_P1;PMS_P2;Temp;Humidity;BMP_temperature;BMP_pressure;BME280_temperature;BME280_humidity;BME280_pressure;Samples;Min_cycle;Max_cycle;Signal;HPM_P1;HPM_P2
2022/10/25 00:01:14;;;;;;;20.27;8.15;;;;;;;10.14;100.00;93619.47;5068105;28;20052;-77
2022/10/25 00:03:41;;;;;;;17.75;7.75;;;;;;;10.12;100.00;93614.50;5069361;28;20044;-78
2022/10/25 00:06:09;;;;;;;16.70;7.55;;;;;;;10.02;100.00;93612.34;5065241;28;20048;-78
2022/10/25 00:08:36;;;;;;;21.35;7.53;;;;;;;10.05;100.00;93618.06;5062240;28;20132;-78
2022/10/25 00:11:03;;;;;;;16.00;7.10;;;;;;;10.05;100.00;93616.28;5060945;28;20048;-77
2022/10/25 00:13:30;;;;;;;17.25;7.72;;;;;;;10.05;100.00;93613.72;5048733;28;20045;-76
2022/10/25 00:15:58;;;;;;;16.85;7.45;;;;;;;10.01;100.00;93608.16;5048905;28;20087;-76
2022/10/25 00:18:25;;;;;;;14.15;6.95;;;;;;;9.99;100.00;93596.50;5048576;28;20037;-76
2022/10/25 00:20:52;;;;;;;17.63;7.25;;;;;;;10.05;100.00;93613.72;5065829;28;20094;-76
2022/10/25 00:23:18;;;;;;;18.05;7.97;;;;;;;10.12;100.00;93611.16;5059394;28;20095;-76
2022/10/25 00:25:45;;;;;;;15.13;7.28;;;;;;;10.03;100.00;93610.53;5048911;28;20095;-76
2022/10/25 00:28:12;;;;;;;14.73;6.78;;;;;;;10.06;100.00;93614.50;5048710;28;20075;-77
2022/10/25 00:30:39;;;;;;;18.10;7.15;;;;;;;9.98;100.00;93610.34;5048434;28;20087;-77
2022/10/25 00:33:07;;;;;;;15.02;6.60;;;;;;;9.90;100.00;93613.88;5053740;28;20094;-77
2022/10/25 00:35:35;;;;;;;16.27;7.55;;;;;;;9.86;100.00;93610.91;5069003;28;20044;-78
2022/10/25 00:38:02;;;;;;;20.13;6.95;;;;;;;9.89;100.00;93607.97;5068949;28;20098;-77
2022/10/25 00:40:31;;;;;;;16.73;6.35;;;;;;;9.85;100.00;93604.22;5069248;28;20045;-80
2022/10/25 00:42:57;;;;;;;20.80;6.82;;;;;;;9.62;100.00;93572.00;5069649;28;20131;-78
2022/10/25 00:45:26;;;;;;;17.85;7.90;;;;;;;9.77;100.00;93594.16;5069218;28;20622;-77
2022/10/25 00:48:00;;;;;;;11.70;6.57;;;;;;;9.81;100.00;93603.00;5068946;28;20118;-77
2022/10/25 00:50:45;;;;;;;15.32;6.53;;;;;;;9.72;100.00;93581.09;5064150;28;20132;-77
2022/10/25 00:53:15;;;;;;;13.93;6.88;;;;;;;9.78;100.00;93598.28;5061104;28;20094;-77
2022/10/25 00:55:46;;;;;;;15.98;6.18;;;;;;;9.76;100.00;93601.03;5062639;28;20045;-77
2022/10/25 00:58:16;;;;;;;15.00;5.75;;;;;;;9.68;100.00;93588.38;5054227;28;20049;-76
2022/10/25 01:00:45;;;;;;;14.05;5.78;;;;;;;9.72;100.00;93589.56;5047989;28;20464;-76
2022/10/25 01:03:13;;;;;;;10.80;6.25;;;;;;;9.73;100.00;93592.94;5047973;28;20084;-76
2022/10/25 01:05:43;;;;;;;10.85;6.38;;;;;;;9.68;100.00;93585.03;5066284;28;20040;-76
2022/10/25 01:08:10;;;;;;;17.08;7.75;;;;;;;9.70;100.00;93595.88;5068520;28;20514;-75
2022/10/25 01:10:39;;;;;;;13.63;6.82;;;;;;;9.57;100.00;93584.63;5068364;28;20091;-76
2022/10/25 01:13:06;;;;;;;16.73;8.43;;;;;;;9.61;100.00;93593.50;5072324;28;20098;-76
2022/10/25 01:15:40;;;;;;;14.85;7.65;;;;;;;9.60;100.00;93596.25;5072031;28;20450;-76
2022/10/25 01:18:15;;;;;;;15.15;8.23;;;;;;;9.36;100.00;93563.25;5072010;28;20098;-76
2022/10/25 01:21:23;;;;;;;19.02;7.78;;;;;;;9.55;100.00;93598.63;5071292;28;20393;-76
2022/10/25 01:24:11;;;;;;;15.32;7.38;;;;;;;9.49;100.00;93595.03;5063635;28;20094;-76
2022/10/25 01:27:01;;;;;;;16.80;7.65;;;;;;;9.40;100.00;93596.97;5071734;28;20492;-76
2022/10/25 01:29:48;;;;;;;19.52;8.95;;;;;;;9.41;100.00;93587.53;5072168;28;20048;-76
2022/10/25 01:32:22;;;;;;;19.33;8.80;;;;;;;9.40;100.00;93588.53;5071260;28;20139;-79
2022/10/25 01:34:56;;;;;;;16.48;8.43;;;;;;;9.36;100.00;93595.81;5072042;28;20089;-79
2022/10/25 01:37:30;;;;;;;19.15;8.55;;;;;;;9.29;100.00;93589.84;5071854;28;20102;-79
2022/10/25 01:40:03;;;;;;;14.95;7.28;;;;;;;9.28;100.00;93580.59;5071605;28;20136;-79
2022/10/25 01:42:35;;;;;;;16.50;8.05;;;;;;;9.27;100.00;93579.81;5071502;28;20549;-79
2022/10/25 01:45:09;;;;;;;19.20;7.53;;;;;;;9.26;100.00;93573.06;5071702;28;20052;-79
2022/10/25 01:47:42;;;;;;;17.42;7.95;;;;;;;9.31;100.00;93585.34;5071642;28;20048;-79
2022/10/25 01:50:13;;;;;;;20.83;8.07;;;;;;;9.32;100.00;93581.78;5071319;28;20049;-78
2022/10/25 01:52:40;;;;;;;15.13;8.27;;;;;;;9.15;100.00;93566.75;5071509;28;20052;-77
2022/10/25 01:55:10;;;;;;;13.93;7.28;;;;;;;9.25;100.00;93574.06;5071389;28;20121;-77
2022/10/25 01:57:55;;;;;;;17.45;6.68;;;;;;;9.21;100.00;93575.41;5071490;28;20090;-77
2022/10/25 02:00:23;;;;;;;14.27;6.70;;;;;;;9.19;100.00;93567.94;5071166;28;20048;-77
2022/10/25 02:03:04;;;;;;;12.75;6.88;;;;;;;9.18;100.00;93581.75;5071495;28;20844;-77
2022/10/25 02:05:38;;;;;;;16.45;6.88;;;;;;;9.14;100.00;93579.75;5071038;28;20044;-77
2022/10/25 02:08:08;;;;;;;17.05;6.22;;;;;;;9.11;100.00;93580.13;5071426;28;20049;-77
2022/10/25 02:10:38;;;;;;;14.32;6.57;;;;;;;9.10;100.00;93579.34;5071144;28;20052;-77
2022/10/25 02:13:21;;;;;;;11.20;5.88;;;;;;;9.05;100.00;93579.91;5071226;28;20052;-77
2022/10/25 02:15:56;;;;;;;13.52;6.57;;;;;;;9.01;100.00;93581.28;5071221;28;20045;-77
2022/10/25 02:18:28;;;;;;;11.73;5.28;;;;;;;9.02;100.00;93585.41;5071027;28;20491;-77
2022/10/25 02:20:56;;;;;;;15.38;6.55;;;;;;;9.00;100.00;93589.94;5070593;28;20045;-77
2022/10/25 02:23:25;;;;;;;15.98;6.70;;;;;;;8.98;100.00;93581.63;5069933;28;20492;-77
2022/10/25 02:25:53;;;;;;;19.67;8.52;;;;;;;8.93;100.00;93583.97;5070894;28;20118;-77
2022/10/25 02:28:23;;;;;;;15.82;7.68;;;;;;;8.93;100.00;93587.34;5071044;28;20044;-77
2022/10/25 02:30:52;;;;;;;25.38;7.38;;;;;;;8.93;100.00;93595.03;5070650;28;20048;-77
2022/10/25 02:33:19;;;;;;;18.08;8.25;;;;;;;8.88;100.00;93589.69;5070759;28;20117;-77
2022/10/25 02:36:05;;;;;;;17.40;7.57;;;;;;;8.79;100.00;93588.25;5070794;28;20041;-77
2022/10/25 02:38:32;;;;;;;15.30;7.18;;;;;;;8.81;100.00;93596.56;5070628;28;20135;-76
2022/10/25 02:41:02;;;;;;;15.73;8.05;;;;;;;8.77;100.00;93593.56;5070783;28;20052;-76
2022/10/25 02:43:29;;;;;;;17.35;7.00;;;;;;;8.70;100.00;93590.16;5070591;28;20040;-76
2022/10/25 02:45:55;;;;;;;14.57;6.85;;;;;;;8.68;100.00;93592.13;5070329;28;20515;-76
2022/10/25 02:48:22;;;;;;;16.70;7.13;;;;;;;8.71;100.00;93596.09;5070374;28;20075;-76
2022/10/25 02:50:50;;;;;;;12.13;6.88;;;;;;;8.66;100.00;93596.66;5070488;28;20052;-76
2022/10/25 02:53:17;;;;;;;12.95;5.97;;;;;;;8.62;100.00;93588.56;5051940;28;20055;-76
2022/10/25 02:55:44;;;;;;;14.75;7.22;;;;;;;8.60;100.00;93589.75;5048932;28;20440;-76
2022/10/25 02:58:11;;;;;;;14.38;6.28;;;;;;;8.53;100.00;93585.34;5049883;28;20501;-76
2022/10/25 03:00:37;;;;;;;15.05;5.95;;;;;;;8.51;100.00;93589.03;5052627;28;20037;-76
2022/10/25 03:03:04;;;;;;;11.77;6.43;;;;;;;8.47;100.00;93587.84;5050087;28;20049;-76
2022/10/25 03:05:31;;;;;;;11.25;5.35;;;;;;;8.40;100.00;93590.34;5049993;28;20045;-76
2022/10/25 03:07:59;;;;;;;12.70;6.25;;;;;;;8.38;100.00;93580.28;5049748;28;20546;-76
2022/10/25 03:10:26;;;;;;;10.68;5.95;;;;;;;8.39;100.00;93592.09;5050191;28;20075;-77
2022/10/25 03:12:52;;;;;;;15.73;6.82;;;;;;;8.27;100.00;93573.94;5049272;28;20049;-77
2022/10/25 03:15:19;;;;;;;14.52;6.20;;;;;;;8.35;100.00;93579.88;5050157;28;20064;-77
2022/10/25 03:17:46;;;;;;;18.75;7.43;;;;;;;8.31;100.00;93576.91;5049519;28;20083;-77
2022/10/25 03:20:12;;;;;;;21.85;10.77;;;;;;;8.24;100.00;93579.41;5061385;28;20052;-77
2022/10/25 03:22:39;;;;;;;24.95;12.63;;;;;;;8.23;100.00;93579.59;5069481;28;20040;-77
2022/10/25 03:25:08;;;;;;;23.65;12.57;;;;;;;8.13;100.00;93565.38;5069691;28;20098;-76
2022/10/25 03:27:35;;;;;;;23.90;12.15;;;;;;;8.21;100.00;93581.56;5069464;28;20040;-77
2022/10/25 03:30:01;;;;;;;21.27;10.52;;;;;;;8.20;100.00;93579.97;5069674;28;20182;-76
2022/10/25 03:32:28;;;;;;;20.85;9.07;;;;;;;8.20;100.00;93569.75;5069482;28;20052;-77
2022/10/25 03:34:55;;;;;;;16.40;9.02;;;;;;;8.20;100.00;93567.19;5069466;28;20455;-77
2022/10/25 03:37:22;;;;;;;18.45;8.73;;;;;;;8.15;100.00;93573.63;5069372;28;20055;-77
2022/10/25 03:39:48;;;;;;;16.42;8.65;;;;;;;8.12;100.00;93574.03;5069529;28;20435;-77
2022/10/25 03:42:16;;;;;;;19.90;11.82;;;;;;;8.07;100.00;93565.31;5069850;28;20037;-77
2022/10/25 03:44:43;;;;;;;20.77;11.27;;;;;;;8.08;100.00;93566.88;5069108;28;20040;-77
2022/10/25 03:47:10;;;;;;;34.00;17.88;;;;;;;8.02;100.00;93568.44;5069315;28;20106;-77
2022/10/25 03:49:37;;;;;;;33.10;17.10;;;;;;;8.00;100.00;93573.72;5068919;28;20044;-77
2022/10/25 03:52:05;;;;;;;27.45;13.88;;;;;;;7.91;100.00;93568.94;5069259;28;20516;-77
2022/10/25 03:54:32;;;;;;;27.00;15.80;;;;;;;7.87;100.00;93565.94;5069430;28;20095;-77
2022/10/25 03:56:59;;;;;;;24.02;13.48;;;;;;;7.88;100.00;93565.75;5069396;28;20075;-77
2022/10/25 03:59:27;;;;;;;26.27;14.52;;;;;;;7.87;100.00;93555.72;5069604;28;20102;-77
2022/10/25 04:01:54;;;;;;;25.23;13.13;;;;;;;7.79;100.00;93546.41;5069416;28;20049;-77
2022/10/25 04:04:20;;;;;;;30.50;16.77;;;;;;;7.92;100.00;93566.16;5069736;28;20106;-77
2022/10/25 04:06:47;;;;;;;32.95;16.75;;;;;;;7.92;100.00;93563.59;5069146;28;20554;-76
2022/10/25 04:09:14;;;;;;;35.28;17.65;;;;;;;7.92;100.00;93558.50;5069166;28;20496;-77
2022/10/25 04:11:41;;;;;;;31.23;16.10;;;;;;;7.93;100.00;93559.28;5069267;28;20093;-77
2022/10/25 04:14:08;;;;;;;33.92;17.05;;;;;;;7.88;100.00;93559.84;5069406;28;20389;-77
2022/10/25 04:16:36;;;;;;;32.95;16.10;;;;;;;7.82;100.00;93563.16;5068868;28;20102;-77
2022/10/25 04:19:02;;;;;;;26.90;14.68;;;;;;;7.79;100.00;93551.53;5069379;28;20106;-77
2022/10/25 04:21:29;;;;;;;30.17;15.73;;;;;;;7.77;100.00;93557.78;5069107;28;20508;-77
2022/10/25 04:23:56;;;;;;;30.38;16.30;;;;;;;7.75;100.00;93556.22;5069031;28;20049;-77
2022/10/25 04:26:23;;;;;;;36.42;18.75;;;;;;;7.69;100.00;93553.59;5069487;28;20118;-77
2022/10/25 04:28:51;;;;;;;38.10;16.73;;;;;;;7.55;100.00;93529.66;5069190;28;20452;-77
2022/10/25 04:31:18;;;;;;;39.75;19.90;;;;;;;7.67;100.00;93552.97;5069240;28;20055;-77
2022/10/25 04:33:48;;;;;;;61.55;32.20;;;;;;;7.59;100.00;93559.78;5069163;28;20488;-77
2022/10/25 04:36:15;;;;;;;25.25;13.80;;;;;;;7.31;100.00;93555.38;5068996;28;20541;-77
2022/10/25 04:38:41;;;;;;;103.68;48.75;;;;;;;7.37;100.00;93563.31;5068825;28;20045;-77
2022/10/25 04:41:10;;;;;;;31.63;19.38;;;;;;;7.33;100.00;93562.88;5068785;28;20097;-77
2022/10/25 04:43:37;;;;;;;42.20;22.77;;;;;;;7.35;100.00;93564.28;5068944;28;20579;-77
2022/10/25 04:46:04;;;;;;;38.72;21.38;;;;;;;7.37;100.00;93565.84;5069898;28;20082;-76
2022/10/25 04:48:30;;;;;;;36.60;18.63;;;;;;;7.14;100.00;93531.03;5072894;28;20044;-77
2022/10/25 04:51:00;;;;;;;28.60;16.02;;;;;;;7.37;100.00;93564.09;5072751;28;20049;-76
2022/10/25 04:53:27;;;;;;;27.70;14.32;;;;;;;7.27;100.00;93554.16;5073018;28;20045;-76
2022/10/25 04:55:57;;;;;;;30.92;14.70;;;;;;;7.22;100.00;93541.91;5072733;28;20509;-79
2022/10/25 04:58:25;;;;;;;34.35;15.98;;;;;;;7.40;100.00;93565.50;5072721;28;20869;-79
2022/10/25 05:00:53;;;;;;;26.77;15.07;;;;;;;7.39;100.00;93566.47;5073047;28;20071;-78
2022/10/25 05:03:20;;;;;;;34.30;14.32;;;;;;;7.40;100.00;93570.63;5073052;28;20146;-78
2022/10/25 05:05:47;;;;;;;27.45;14.13;;;;;;;7.35;100.00;93559.16;5072997;28;20041;-78
2022/10/25 05:08:15;;;;;;;40.15;18.98;;;;;;;7.32;100.00;93579.97;5072721;28;20165;-80
2022/10/25 05:10:42;;;;;;;43.55;23.67;;;;;;;7.24;100.00;93559.63;5072749;28;20094;-79
2022/10/25 05:13:08;;;;;;;47.70;28.88;;;;;;;7.38;100.00;93570.78;5072854;28;20075;-79
2022/10/25 05:15:35;;;;;;;39.53;26.45;;;;;;;7.40;100.00;93573.16;5072856;28;20040;-79
2022/10/25 05:18:02;;;;;;;42.33;28.42;;;;;;;7.42;100.00;93571.22;5072492;28;20045;-78
2022/10/25 05:20:29;;;;;;;44.15;27.42;;;;;;;7.52;100.00;93578.59;5072418;28;20048;-78
2022/10/25 05:22:55;;;;;;;41.63;23.50;;;;;;;7.53;100.00;93577.59;5072316;28;20080;-78
2022/10/25 05:25:23;;;;;;;38.15;22.42;;;;;;;7.55;100.00;93573.13;5072615;28;20048;-78
2022/10/25 05:27:50;;;;;;;37.42;21.95;;;;;;;7.58;100.00;93580.41;5069658;28;20527;-79
2022/10/25 05:30:17;;;;;;;34.60;18.20;;;;;;;7.55;100.00;93581.56;5069987;28;20049;-79
2022/10/25 05:32:44;;;;;;;30.30;18.40;;;;;;;7.47;100.00;93585.06;5072067;28;20105;-80
2022/10/25 05:35:10;;;;;;;37.33;18.27;;;;;;;7.44;100.00;93582.03;5071947;28;20053;-79
2022/10/25 05:37:37;;;;;;;46.25;20.55;;;;;;;7.39;100.00;93590.25;5072228;28;20045;-79
2022/10/25 05:40:05;;;;;;;35.50;16.65;;;;;;;7.41;100.00;93595.97;5071891;28;20566;-79
2022/10/25 05:42:33;;;;;;;34.28;16.63;;;;;;;7.27;100.00;93554.16;5071510;28;20279;-79
2022/10/25 05:44:59;;;;;;;39.88;18.77;;;;;;;7.56;100.00;93580.63;5071836;28;20044;-79
2022/10/25 05:47:26;;;;;;;34.40;17.05;;;;;;;7.75;100.00;93591.22;5071962;28;20113;-79
2022/10/25 05:49:53;;;;;;;35.58;17.95;;;;;;;7.84;100.00;93600.34;5071909;28;20037;-79
2022/10/25 05:52:20;;;;;;;35.92;18.60;;;;;;;7.96;100.00;93604.97;5071794;28;20428;-80
2022/10/25 05:54:46;;;;;;;33.97;18.63;;;;;;;7.98;100.00;93606.38;5071640;28;20041;-80
2022/10/25 05:57:13;;;;;;;39.13;21.00;;;;;;;8.07;100.00;93629.25;5071646;28;20447;-80
2022/10/25 05:59:41;;;;;;;35.05;21.75;;;;;;;8.13;100.00;93625.97;5071755;28;20094;-79
2022/10/25 06:02:09;;;;;;;46.63;24.80;;;;;;;8.12;100.00;93609.03;5071374;28;20056;-79
2022/10/25 06:04:36;;;;;;;44.67;24.20;;;;;;;8.12;100.00;93602.16;5071705;28;20037;-79
2022/10/25 06:07:04;;;;;;;40.38;23.48;;;;;;;8.32;100.00;93616.09;5071752;28;20049;-79
2022/10/25 06:09:31;;;;;;;72.88;33.85;;;;;;;8.24;100.00;93611.91;5071430;28;20119;-78
2022/10/25 06:11:57;;;;;;;145.63;58.17;;;;;;;8.21;100.00;93623.31;5072005;28;20102;-78
2022/10/25 06:14:24;;;;;;;38.80;18.92;;;;;;;7.92;100.00;93626.78;5071243;28;20546;-78
2022/10/25 06:16:52;;;;;;;58.17;28.05;;;;;;;7.91;100.00;93625.19;5071396;28;20044;-79
2022/10/25 06:19:20;;;;;;;49.78;23.30;;;;;;;8.01;100.00;93628.25;5071422;28;20044;-80
2022/10/25 06:21:46;;;;;;;37.53;18.77;;;;;;;8.11;100.00;93633.06;5071532;28;20196;-79
2022/10/25 06:24:13;;;;;;;48.33;21.83;;;;;;;8.16;100.00;93634.06;5071139;28;20106;-79
2022/10/25 06:26:40;;;;;;;42.65;21.70;;;;;;;8.26;100.00;93640.66;5071362;28;20097;-79
2022/10/25 06:29:07;;;;;;;34.58;17.98;;;;;;;8.37;100.00;93645.28;5071198;28;20098;-79
2022/10/25 06:31:33;;;;;;;32.42;17.15;;;;;;;8.22;100.00;93614.66;5071177;28;20040;-78
2022/10/25 06:34:02;;;;;;;33.13;16.17;;;;;;;8.45;100.00;93630.75;5071138;28;20052;-79
2022/10/25 06:36:30;;;;;;;45.22;25.10;;;;;;;8.60;100.00;93640.94;5070837;28;20458;-79
2022/10/25 06:38:57;;;;;;;48.72;26.73;;;;;;;8.57;100.00;93631.06;5071119;28;20143;-79
2022/10/25 06:41:26;;;;;;;33.97;19.55;;;;;;;8.84;100.00;93649.94;5071028;28;20048;-78
2022/10/25 06:43:54;;;;;;;35.92;19.40;;;;;;;9.00;100.00;93651.44;5070568;28;20465;-78
2022/10/25 06:46:23;;;;;;;36.55;18.77;;;;;;;9.24;100.00;93651.94;5070585;28;20056;-78
2022/10/25 06:48:52;;;;;;;41.72;19.48;;;;;;;9.42;100.00;93653.22;5070443;28;20040;-79
2022/10/25 06:51:21;;;;;;;41.28;18.60;;;;;;;9.60;100.00;93653.50;5070870;28;20113;-79
2022/10/25 06:53:53;;;;;;;41.03;17.38;;;;;;;9.80;100.00;93646.81;5070507;28;20098;-79
2022/10/25 06:56:20;;;;;;;48.53;21.50;;;;;;;9.82;100.00;93635.38;5070702;28;20071;-79
2022/10/25 06:58:47;;;;;;;59.75;29.42;;;;;;;10.13;100.00;93639.19;5070414;28;20106;-78
2022/10/25 07:01:15;;;;;;;72.90;30.33;;;;;;;10.32;100.00;93643.75;5070148;28;20109;-78
2022/10/25 07:03:43;;;;;;;88.30;42.35;;;;;;;10.38;100.00;93632.69;5070849;28;20427;-78
2022/10/25 07:06:12;;;;;;;98.47;44.53;;;;;;;10.65;100.00;93633.50;5070658;28;20401;-78
2022/10/25 07:08:42;;;;;;;84.45;39.33;;;;;;;10.78;100.00;93629.34;5069787;28;20040;-78
2022/10/25 07:11:13;;;;;;;95.10;42.60;;;;;;;10.95;100.00;93632.25;5070552;28;20390;-78
2022/10/25 07:13:40;;;;;;;77.03;38.20;;;;;;;11.20;100.00;93626.47;5070267;28;20125;-77
2022/10/25 07:16:09;;;;;;;79.57;35.50;;;;;;;11.34;100.00;93614.38;5070316;28;20090;-78
2022/10/25 07:18:37;;;;;;;75.10;34.28;;;;;;;11.57;100.00;93623.38;5070055;28;20045;-78
2022/10/25 07:21:06;;;;;;;73.53;31.80;;;;;;;11.75;100.00;93620.91;5070093;28;20045;-77
2022/10/25 07:23:37;;;;;;;61.95;30.63;;;;;;;11.89;100.00;93616.47;5069721;28;20657;-77
2022/10/25 07:26:05;;;;;;;77.90;35.92;;;;;;;12.06;100.00;93630.63;5070149;28;20405;-76
2022/10/25 07:28:32;;;;;;;76.05;33.47;;;;;;;12.21;100.00;93623.41;5069723;28;20048;-78
2022/10/25 07:30:59;;;;;;;87.57;37.25;;;;;;;12.28;100.00;93623.38;5069403;28;20052;-77
2022/10/25 07:33:26;;;;;;;80.07;33.50;;;;;;;12.34;100.00;93630.25;5063671;28;20573;-77
2022/10/25 07:35:52;;;;;;;62.97;27.00;;;;;;;12.45;100.00;93630.56;5069283;28;20086;-77
2022/10/25 07:38:19;;;;;;;59.13;26.48;;;;;;;12.58;100.00;93620.16;5069072;28;20485;-77
2022/10/25 07:40:46;;;;;;;61.90;27.30;;;;;;;12.74;100.00;93620.63;5069523;28;20109;-78
2022/10/25 07:43:14;;;;;;;53.70;24.08;;;;;;;12.75;100.00;93617.84;5069048;28;20505;-77
2022/10/25 07:45:40;;;;;;;57.30;24.08;;;;;;;12.88;100.00;93624.66;5068930;28;20052;-77
2022/10/25 07:48:07;;;;;;;61.40;24.52;;;;;;;12.78;100.00;93624.34;5069029;28;20106;-77
2022/10/25 07:50:34;;;;;;;54.13;23.42;;;;;;;12.75;100.00;93622.19;5068677;28;20439;-77
2022/10/25 07:53:01;;;;;;;60.78;21.50;;;;;;;12.90;100.00;93625.22;5068894;28;20109;-77
2022/10/25 07:55:28;;;;;;;39.67;17.83;;;;;;;13.05;100.00;93624.88;5069269;28;20045;-79
2022/10/25 07:57:59;;;;;;;36.83;16.65;;;;;;;13.16;100.00;93610.47;5068897;28;20086;-78
2022/10/25 08:00:28;;;;;;;48.60;17.17;;;;;;;13.42;100.00;93612.97;5069175;28;20149;-78
2022/10/25 08:02:55;;;;;;;35.22;14.13;;;;;;;13.64;100.00;93626.22;5068561;28;20513;-77
2022/10/25 08:05:21;;;;;;;42.40;16.48;;;;;;;13.78;100.00;93623.47;5068895;28;20040;-78
2022/10/25 08:07:49;;;;;;;35.70;14.85;;;;;;;13.97;100.00;93621.63;5069122;28;20047;-80
2022/10/25 08:10:16;;;;;;;41.72;16.35;;;;;;;14.09;100.00;93626.81;5068943;28;20044;-80
2022/10/25 08:12:43;;;;;;;33.78;13.98;;;;;;;14.37;99.83;93617.66;5069022;28;20036;-80
2022/10/25 08:15:10;;;;;;;40.15;15.27;;;;;;;14.59;99.00;93617.94;5068857;28;20127;-79
2022/10/25 08:17:38;;;;;;;38.80;14.88;;;;;;;14.84;96.30;93627.28;5068833;28;20456;-79
2022/10/25 08:20:06;;;;;;;35.40;13.70;;;;;;;15.02;94.76;93604.88;5068363;28;20045;-79
2022/10/25 08:22:33;;;;;;;30.30;11.02;;;;;;;15.31;94.04;93612.69;5068721;28;20048;-79
2022/10/25 08:25:00;;;;;;;31.63;11.13;;;;;;;15.63;96.22;93601.91;5069011;28;20500;-79
2022/10/25 08:27:27;;;;;;;29.58;10.93;;;;;;;15.74;93.54;93588.13;5069281;28;20041;-79
2022/10/25 08:29:53;;;;;;;34.58;9.52;;;;;;;16.12;89.80;93604.06;5069131;28;20094;-79
2022/10/25 08:32:20;;;;;;;26.23;9.95;;;;;;;16.40;89.22;93604.25;5068931;28;20493;-79
2022/10/25 08:34:48;;;;;;;29.58;9.93;;;;;;;16.58;88.27;93607.63;5070116;28;20053;-80
2022/10/25 08:37:15;;;;;;;26.95;8.57;;;;;;;16.71;87.48;93604.69;5069253;28;20040;-80
2022/10/25 08:39:43;;;;;;;27.52;8.88;;;;;;;16.88;84.52;93604.69;5069102;28;20045;-80
2022/10/25 08:42:19;;;;;;;19.88;8.20;;;;;;;17.14;81.81;93606.84;5068968;28;20516;-80
2022/10/25 08:44:54;;;;;;;29.58;8.80;;;;;;;17.27;82.18;93603.88;5068716;28;20048;-78
2022/10/25 08:47:28;;;;;;;29.90;8.55;;;;;;;17.47;83.21;93585.19;5068859;28;20178;-79
2022/10/25 08:50:01;;;;;;;27.02;9.10;;;;;;;17.71;80.80;93597.09;5068895;28;20127;-79
2022/10/25 08:52:34;;;;;;;28.55;7.88;;;;;;;17.83;80.13;93582.16;5069086;28;20098;-79
2022/10/25 08:55:03;;;;;;;23.75;7.35;;;;;;;18.01;76.29;93586.22;5068892;28;20102;-79
2022/10/25 08:57:33;;;;;;;28.73;8.95;;;;;;;18.32;77.90;93596.13;5068927;28;20736;-78
2022/10/25 09:00:06;;;;;;;25.23;7.40;;;;;;;18.56;76.88;93608.75;5068609;28;20098;-79
2022/10/25 09:02:39;;;;;;;31.10;8.05;;;;;;;18.77;75.56;93601.91;5068415;28;20194;-80
2022/10/25 09:05:16;;;;;;;24.25;8.32;;;;;;;19.02;76.60;93594.50;5069069;28;20057;-79
2022/10/25 09:08:06;;;;;;;25.05;7.53;;;;;;;19.23;71.73;93604.00;5068466;28;20492;-79
2022/10/25 09:10:45;;;;;;;23.52;6.30;;;;;;;19.37;73.85;93593.09;5053683;28;20554;-79
2022/10/25 09:13:25;;;;;;;22.08;7.18;;;;;;;19.53;68.79;93601.75;5058678;28;20052;-79
2022/10/25 09:16:01;;;;;;;19.77;6.38;;;;;;;19.67;67.25;93599.44;5068769;28;20078;-80
2022/10/25 09:18:36;;;;;;;24.70;6.80;;;;;;;19.74;67.52;93599.19;5068498;28;20135;-80
2022/10/25 09:21:09;;;;;;;21.13;6.28;;;;;;;19.74;67.48;93592.19;5068771;28;20052;-80
2022/10/25 09:23:36;;;;;;;27.90;7.10;;;;;;;20.03;67.75;93596.16;5068347;28;20044;-79
2022/10/25 09:26:09;;;;;;;23.23;7.13;;;;;;;20.00;65.29;93587.03;5068323;28;20044;-81
2022/10/25 09:28:51;;;;;;;19.63;5.28;;;;;;;20.26;65.13;93592.25;5068202;28;20058;-80
2022/10/25 09:31:22;;;;;;;22.58;6.55;;;;;;;20.43;63.75;93597.19;5067335;28;20123;-80
2022/10/25 09:33:53;;;;;;;24.40;7.38;;;;;;;20.56;65.97;93587.31;5072017;28;20459;-80
2022/10/25 09:36:22;;;;;;;22.58;6.35;;;;;;;20.65;63.90;93590.91;5072136;28;20037;-80
2022/10/25 09:38:53;;;;;;;26.08;6.25;;;;;;;20.82;62.84;93582.03;5071932;28;20173;-80
2022/10/25 09:41:26;;;;;;;29.70;6.53;;;;;;;20.95;65.84;93565.84;5072153;28;20044;-80
2022/10/25 09:43:58;;;;;;;23.13;6.75;;;;;;;21.14;60.99;93564.47;5071654;28;20048;-80
2022/10/25 09:46:35;;;;;;;26.50;7.05;;;;;;;21.28;63.93;93557.63;5072016;28;20419;-81
2022/10/25 09:49:13;;;;;;;24.77;6.00;;;;;;;21.55;61.94;93568.72;5071967;28;20114;-81
2022/10/25 09:51:53;;;;;;;17.10;5.60;;;;;;;21.82;60.74;93551.88;5071781;28;20090;-81
2022/10/25 09:54:30;;;;;;;21.52;6.30;;;;;;;22.02;56.39;93545.72;5071684;28;20520;-81
2022/10/25 09:56:58;;;;;;;20.45;5.53;;;;;;;22.14;55.93;93540.16;5072182;28;20053;-81
2022/10/25 09:59:26;;;;;;;14.25;3.00;;;;;;;22.26;47.89;93540.56;5071969;28;20049;-81
2022/10/25 10:01:53;;;;;;;14.27;3.33;;;;;;;22.35;42.79;93529.50;5071441;28;20052;-80
2022/10/25 10:04:25;;;;;;;18.92;3.85;;;;;;;22.39;43.69;93520.81;5071487;28;20725;-81
2022/10/25 10:06:59;;;;;;;11.90;2.95;;;;;;;22.37;39.53;93522.94;5071855;28;20048;-80
2022/10/25 10:09:31;;;;;;;10.70;1.92;;;;;;;22.32;38.83;93507.28;5071758;28;20040;-80
2022/10/25 10:12:00;;;;;;;10.88;2.92;;;;;;;22.49;39.94;93516.56;5071773;28;20072;-80
2022/10/25 10:14:31;;;;;;;14.32;4.38;;;;;;;22.49;40.97;93504.25;5071106;28;20049;-80
2022/10/25 10:17:00;;;;;;;14.50;4.53;;;;;;;22.40;39.91;93508.53;5070967;28;20049;-79
2022/10/25 10:19:29;;;;;;;12.35;3.70;;;;;;;22.40;41.31;93498.06;5071277;28;20552;-80
2022/10/25 10:22:00;;;;;;;14.95;4.90;;;;;;;22.57;41.28;93500.28;5071513;28;20055;-80
2022/10/25 10:24:29;;;;;;;17.20;3.45;;;;;;;22.38;40.60;93489.69;5071560;28;20093;-80
2022/10/25 10:26:58;;;;;;;17.58;3.72;;;;;;;22.32;41.35;93490.81;5071097;28;20049;-79
2022/10/25 10:29:27;;;;;;;18.02;3.85;;;;;;;22.36;41.48;93481.34;5071345;28;20105;-80
2022/10/25 10:31:55;;;;;;;16.38;3.63;;;;;;;22.33;41.17;93484.50;5071086;28;20044;-80
2022/10/25 10:34:25;;;;;;;10.50;3.42;;;;;;;22.36;41.25;93483.97;5071131;28;20044;-80
2022/10/25 10:37:07;;;;;;;15.10;3.35;;;;;;;22.47;43.86;93482.00;5070978;28;20042;-80
2022/10/25 10:39:34;;;;;;;15.27;2.67;;;;;;;22.53;44.43;93465.22;5070590;28;20385;-80
2022/10/25 10:42:13;;;;;;;10.98;2.88;;;;;;;22.74;44.06;93476.28;5069196;28;20052;-79
2022/10/25 10:44:40;;;;;;;23.27;3.80;;;;;;;22.81;40.21;93471.47;5069784;28;20040;-80
2022/10/25 10:47:11;;;;;;;17.75;3.58;;;;;;;22.73;42.55;93455.59;5070614;28;20044;-79
2022/10/25 10:49:40;;;;;;;12.00;3.47;;;;;;;22.81;41.10;93466.22;5070318;28;20041;-79
2022/10/25 10:52:26;;;;;;;16.92;3.53;;;;;;;22.66;39.79;93435.78;5070722;28;20397;-79
2022/10/25 10:54:53;;;;;;;;;;;;;;;22.84;39.77;93464.88;5069497;28;20048;-79
2022/10/25 10:57:30;;;;;;;12.93;2.80;;;;;;;22.79;42.03;93446.63;5070509;28;20345;-80
2022/10/25 10:59:59;;;;;;;16.75;2.70;;;;;;;22.98;41.01;93457.13;5070083;28;20045;-81
2022/10/25 11:02:48;;;;;;;12.80;3.80;;;;;;;23.05;39.86;93438.44;5070081;28;20123;-81
2022/10/25 11:05:25;;;;;;;27.40;5.25;;;;;;;23.18;44.47;93437.75;5070214;28;20400;-81
2022/10/25 11:07:56;;;;;;;14.10;3.00;;;;;;;23.22;41.29;93437.94;5056472;28;20053;-81
2022/10/25 11:10:31;;;;;;;14.00;3.45;;;;;;;23.26;40.49;93444.19;5071208;28;20127;-81
2022/10/25 11:13:21;;;;;;;26.17;4.50;;;;;;;23.40;41.64;93435.63;5070066;28;20515;-81
2022/10/25 11:16:10;;;;;;;11.60;2.60;;;;;;;23.41;38.84;93431.97;5052618;28;20331;-81
2022/10/25 11:18:48;;;;;;;11.90;3.25;;;;;;;23.41;41.58;93426.72;5070056;28;20045;-82
2022/10/25 11:21:31;;;;;;;15.77;3.63;;;;;;;23.59;40.78;93433.00;5056491;28;20072;-81
2022/10/25 11:24:09;;;;;;;16.05;2.90;;;;;;;23.60;40.26;93416.19;5069949;28;20056;-81
2022/10/25 11:26:49;;;;;;;13.68;3.13;;;;;;;23.82;40.18;93426.06;5070017;28;20048;-80
2022/10/25 11:29:27;;;;;;;13.00;3.40;;;;;;;23.92;39.64;93425.13;5070148;28;20044;-80
2022/10/25 11:32:01;;;;;;;13.60;3.00;;;;;;;23.81;37.52;93424.53;5070084;28;20063;-80
2022/10/25 11:34:39;;;;;;;14.35;3.30;;;;;;;23.76;38.33;93411.50;5069994;28;20463;-80